Time;durP1;ratioP1;P1;durP2;ratioP2;P2;SDS_P1;SDS_P2;PMS_P1;PMS_P2;Temp;Humidity;BMP_temperature;BMP_pressure;BME280_temperature;BME280_humidity;BME280_pressure;Samples;Min_cycle;Max_cycle;Signal;HPM_P1;HPM_P2
2023/09/17 00:01:09;;;;;;;9.10;7.20;;;;;;;15.67;100.00;96532.59;5015228;28;20041;-66
2023/09/17 00:03:34;;;;;;;10.43;7.40;;;;;;;15.62;100.00;96537.75;5021649;28;20122;-66
2023/09/17 00:06:00;;;;;;;11.48;7.70;;;;;;;15.54;100.00;96539.78;5023365;28;20500;-66
2023/09/17 00:08:26;;;;;;;9.07;7.40;;;;;;;15.48;100.00;96542.19;5017888;28;20048;-67
2023/09/17 00:10:52;;;;;;;11.93;7.40;;;;;;;15.46;100.00;96547.31;5027754;28;20041;-67
2023/09/17 00:13:18;;;;;;;12.93;7.63;;;;;;;15.48;100.00;96539.44;5031647;28;20496;-68
2023/09/17 00:15:43;;;;;;;9.60;7.00;;;;;;;15.52;100.00;96541.38;5038099;28;20594;-68
2023/09/17 00:18:08;;;;;;;10.95;6.70;;;;;;;15.60;100.00;96548.44;5039187;28;20060;-68
2023/09/17 00:20:34;;;;;;;7.97;6.25;;;;;;;15.73;100.00;96549.53;5033182;28;20050;-67
2023/09/17 00:23:03;;;;;;;12.05;6.45;;;;;;;15.81;100.00;96547.53;5017560;28;20060;-67
2023/09/17 00:25:28;;;;;;;10.25;6.05;;;;;;;15.86;100.00;96555.38;5043502;28;20109;-69
2023/09/17 00:27:54;;;;;;;11.40;6.22;;;;;;;15.92;100.00;96559.31;5047835;28;20041;-68
2023/09/17 00:30:19;;;;;;;10.40;6.22;;;;;;;15.96;100.00;96557.28;5032108;28;20077;-69
2023/09/17 00:32:45;;;;;;;12.70;6.43;;;;;;;15.86;100.00;96558.16;5034524;28;20041;-70
2023/09/17 00:35:14;;;;;;;11.07;6.90;;;;;;;15.81;100.00;96551.09;5022627;28;20388;-70
2023/09/17 00:37:42;;;;;;;10.82;7.28;;;;;;;15.78;100.00;96557.41;5032466;28;20041;-68
2023/09/17 00:40:11;;;;;;;11.57;7.15;;;;;;;15.80;100.00;96557.00;5024795;28;20103;-68
2023/09/17 00:42:37;;;;;;;10.60;6.57;;;;;;;15.85;100.00;96567.63;5021586;28;20404;-67
2023/09/17 00:45:04;;;;;;;7.03;6.00;;;;;;;16.02;100.00;96563.16;5024231;28;20042;-69
2023/09/17 00:47:30;;;;;;;13.10;6.28;;;;;;;16.16;100.00;96560.28;5022309;28;20041;-68
2023/09/17 00:49:56;;;;;;;8.80;5.75;;;;;;;16.27;100.00;96559.44;5021298;28;20033;-65
2023/09/17 00:52:22;;;;;;;13.05;5.78;;;;;;;16.44;100.00;96569.56;5026499;28;20308;-68
2023/09/17 00:54:50;;;;;;;10.25;5.65;;;;;;;16.57;100.00;96573.38;5020411;28;20041;-68
2023/09/17 00:57:16;;;;;;;10.02;5.85;;;;;;;16.65;100.00;96570.53;5017757;28;20041;-69
2023/09/17 00:59:47;;;;;;;12.98;6.20;;;;;;;16.71;100.00;96566.13;5020326;28;20038;-69
2023/09/17 01:02:14;;;;;;;10.48;6.13;;;;;;;16.68;100.00;96562.22;5017522;28;20045;-69
2023/09/17 01:04:42;;;;;;;7.88;5.65;;;;;;;16.75;100.00;96558.59;5021641;28;20053;-69
2023/09/17 01:07:09;;;;;;;9.35;5.97;;;;;;;16.78;100.00;96555.00;5017103;28;20041;-69
2023/09/17 01:09:37;;;;;;;8.43;5.57;;;;;;;16.80;100.00;96561.69;5021133;28;20442;-69
2023/09/17 01:12:03;;;;;;;10.98;5.78;;;;;;;16.82;100.00;96556.53;5019714;28;20049;-67
2023/09/17 01:14:29;;;;;;;9.25;5.35;;;;;;;16.84;100.00;96560.91;5014916;28;20053;-69
2023/09/17 01:16:56;;;;;;;12.32;5.50;;;;;;;16.85;100.00;96565.22;5017653;28;20389;-69
2023/09/17 01:19:33;;;;;;;10.98;6.22;;;;;;;16.82;100.00;96570.38;4993482;28;20143;-67
2023/09/17 01:22:13;;;;;;;11.68;5.82;;;;;;;16.84;100.00;96566.44;5002300;28;20046;-68
2023/09/17 01:24:54;;;;;;;9.77;5.97;;;;;;;16.85;100.00;96568.00;5037362;28;20049;-68
2023/09/17 01:27:20;;;;;;;7.82;5.70;;;;;;;16.89;100.00;96564.00;5025788;28;20071;-69
2023/09/17 01:29:49;;;;;;;10.40;5.78;;;;;;;16.87;100.00;96562.84;5021841;28;20514;-67
2023/09/17 01:32:16;;;;;;;9.35;5.95;;;;;;;16.80;100.00;96574.75;5016368;28;20041;-69
2023/09/17 01:34:43;;;;;;;8.82;6.35;;;;;;;16.66;100.00;96572.13;5021704;28;20516;-70
2023/09/17 01:37:23;;;;;;;10.18;6.70;;;;;;;16.44;100.00;96573.09;5017158;28;20500;-70
2023/09/17 01:40:07;;;;;;;13.98;7.53;;;;;;;16.21;100.00;96572.91;5021680;28;20033;-69
2023/09/17 01:42:34;;;;;;;10.82;6.57;;;;;;;16.18;100.00;96580.00;5041420;28;20143;-68
2023/09/17 01:45:01;;;;;;;13.00;7.30;;;;;;;16.14;100.00;96572.97;5035781;28;20049;-70
2023/09/17 01:47:28;;;;;;;9.93;6.47;;;;;;;16.21;100.00;96575.66;5040281;28;20113;-67
2023/09/17 01:49:57;;;;;;;10.68;6.50;;;;;;;16.41;100.00;96570.38;5054096;28;20051;-68
2023/09/17 01:52:26;;;;;;;8.07;6.00;;;;;;;16.58;100.00;96565.84;5024715;28;20071;-69
2023/09/17 01:54:52;;;;;;;9.82;5.57;;;;;;;16.68;100.00;96567.75;5018083;28;20050;-69
2023/09/17 01:57:17;;;;;;;9.75;5.30;;;;;;;16.78;100.00;96579.88;5018467;28;20050;-68
2023/09/17 01:59:43;;;;;;;8.82;5.68;;;;;;;16.85;100.00;96579.06;5016675;28;20144;-68
2023/09/17 02:02:08;;;;;;;9.02;5.93;;;;;;;16.79;100.00;96582.25;5013268;28;20046;-68
2023/09/17 02:04:33;;;;;;;13.52;6.20;;;;;;;16.65;100.00;96578.84;5016771;28;20053;-68
2023/09/17 02:06:59;;;;;;;14.95;7.28;;;;;;;16.24;100.00;96578.41;5013808;28;20511;-66
2023/09/17 02:09:24;;;;;;;9.60;6.70;;;;;;;16.10;100.00;96580.47;5008867;28;20050;-68
2023/09/17 02:11:50;;;;;;;10.95;7.28;;;;;;;15.98;100.00;96587.28;5012720;28;20048;-66
2023/09/17 02:14:16;;;;;;;9.20;7.15;;;;;;;15.97;100.00;96592.03;5004398;28;20091;-66
2023/09/17 02:16:42;;;;;;;10.98;6.68;;;;;;;16.15;100.00;96597.41;5010489;28;20412;-67
2023/09/17 02:19:09;;;;;;;12.63;6.68;;;;;;;16.31;100.00;96583.06;5010796;28;20046;-68
2023/09/17 02:21:35;;;;;;;11.73;6.85;;;;;;;16.51;100.00;96582.50;5016968;28;20509;-66
2023/09/17 02:24:01;;;;;;;11.60;6.85;;;;;;;16.70;100.00;96584.72;5008914;28;20050;-67
2023/09/17 02:26:26;;;;;;;10.77;5.80;;;;;;;16.73;100.00;96577.59;5015810;28;20052;-69
2023/09/17 02:28:52;;;;;;;8.38;6.35;;;;;;;16.61;100.00;96581.63;5000729;28;20080;-69
2023/09/17 02:31:18;;;;;;;13.88;7.18;;;;;;;16.04;100.00;96589.22;5000145;28;20053;-69
2023/09/17 02:33:43;;;;;;;14.70;7.70;;;;;;;15.84;100.00;96583.41;5004926;28;20050;-70
2023/09/17 02:36:09;;;;;;;14.90;8.65;;;;;;;15.76;100.00;96581.09;5005867;28;20045;-70
2023/09/17 02:38:34;;;;;;;12.25;9.13;;;;;;;15.65;100.00;96592.97;5004810;28;20128;-68
2023/09/17 02:40:59;;;;;;;11.77;8.40;;;;;;;15.58;100.00;96581.97;5003232;28;20045;-69
2023/09/17 02:43:27;;;;;;;13.13;8.70;;;;;;;15.54;100.00;96591.44;5012567;28;20442;-68
2023/09/17 02:45:54;;;;;;;13.55;9.55;;;;;;;15.53;100.00;96590.66;5010246;28;20099;-68
2023/09/17 02:48:19;;;;;;;9.35;7.75;;;;;;;15.76;100.00;96584.66;5007642;28;20158;-68
2023/09/17 02:50:45;;;;;;;12.55;7.47;;;;;;;15.96;100.00;96587.69;5011446;28;20552;-69
2023/09/17 02:53:11;;;;;;;11.27;7.50;;;;;;;16.08;100.00;96586.44;5007300;28;20130;-67
2023/09/17 02:55:36;;;;;;;15.93;7.47;;;;;;;16.19;100.00;96586.34;5017464;28;20111;-66
2023/09/17 02:58:02;;;;;;;10.52;7.40;;;;;;;16.21;100.00;96590.25;5011299;28;20049;-68
2023/09/17 03:00:32;;;;;;;14.10;6.95;;;;;;;16.28;100.00;96597.72;5018947;28;20064;-69
2023/09/17 03:02:57;;;;;;;11.68;7.28;;;;;;;16.22;100.00;96591.84;5024474;28;20488;-67
2023/09/17 03:05:24;;;;;;;11.95;7.30;;;;;;;16.08;100.00;96594.72;5020023;28;20079;-68
2023/09/17 03:07:49;;;;;;;12.68;7.57;;;;;;;16.12;100.00;96584.41;5007644;28;20045;-68
2023/09/17 03:10:18;;;;;;;10.23;7.75;;;;;;;16.14;100.00;96586.78;5016660;28;20055;-68
2023/09/17 03:12:48;;;;;;;12.98;7.82;;;;;;;16.19;100.00;96589.88;5007781;28;20519;-68
2023/09/17 03:15:13;;;;;;;10.05;7.07;;;;;;;16.19;100.00;96592.66;5001628;28;20065;-68
2023/09/17 03:17:42;;;;;;;10.57;6.90;;;;;;;16.21;100.00;96597.78;5009660;28;20586;-68
2023/09/17 03:20:16;;;;;;;9.32;7.50;;;;;;;16.15;100.00;96593.84;5006597;28;20057;-67
2023/09/17 03:22:43;;;;;;;11.02;7.57;;;;;;;16.25;100.00;96590.22;5011182;28;20045;-68
2023/09/17 03:25:09;;;;;;;14.05;7.10;;;;;;;16.41;100.00;96589.72;5007209;28;20091;-67
2023/09/17 03:27:34;;;;;;;9.25;6.78;;;;;;;16.44;100.00;96591.66;5007358;28;20132;-68
2023/09/17 03:30:05;;;;;;;8.50;6.75;;;;;;;16.51;100.00;96594.38;5007659;28;20481;-68
2023/09/17 03:32:31;;;;;;;9.70;6.57;;;;;;;16.49;100.00;96593.19;5027348;28;20045;-68
2023/09/17 03:34:57;;;;;;;10.45;6.60;;;;;;;16.48;100.00;96600.72;5023314;28;20049;-69
2023/09/17 03:37:23;;;;;;;10.65;6.75;;;;;;;16.44;100.00;96595.22;5017729;28;20528;-68
2023/09/17 03:40:14;;;;;;;13.57;7.65;;;;;;;16.36;100.00;96598.44;5023589;28;20107;-68
2023/09/17 03:42:41;;;;;;;13.23;6.70;;;;;;;16.31;100.00;96590.59;5023083;28;20080;-69
2023/09/17 03:45:09;;;;;;;10.82;6.65;;;;;;;16.20;100.00;96588.69;5018401;28;20046;-68
2023/09/17 03:47:39;;;;;;;13.65;7.65;;;;;;;16.08;100.00;96593.91;5023246;28;20142;-69
2023/09/17 03:50:06;;;;;;;;;;;;;;;15.94;100.00;96583.75;5018535;28;20053;-66
2023/09/17 03:52:34;;;;;;;10.77;6.70;;;;;;;16.03;100.00;96584.09;5021710;28;19921;-70
2023/09/17 03:55:00;;;;;;;15.25;6.18;;;;;;;16.16;100.00;96581.63;5021491;28;20037;-70
2023/09/17 03:57:25;;;;;;;10.73;6.75;;;;;;;16.22;100.00;96583.56;5023133;28;20102;-66
2023/09/17 03:59:51;;;;;;;10.15;6.18;;;;;;;16.32;100.00;96581.88;5023206;28;20041;-68
2023/09/17 04:02:17;;;;;;;8.88;7.03;;;;;;;16.41;100.00;96579.44;5016131;28;20535;-68
2023/09/17 04:04:42;;;;;;;11.32;8.00;;;;;;;16.28;100.00;96581.13;5009936;28;20550;-68
2023/09/17 04:07:08;;;;;;;10.70;7.50;;;;;;;15.81;100.00;96586.19;5019245;28;20046;-64
2023/09/17 04:09:33;;;;;;;8.82;6.95;;;;;;;15.71;100.00;96589.78;5006146;28;20108;-70
2023/09/17 04:12:06;;;;;;;12.32;7.25;;;;;;;15.67;100.00;96587.81;5010261;28;20532;-69
2023/09/17 04:14:32;;;;;;;10.20;6.60;;;;;;;15.75;100.00;96580.31;5016313;28;20045;-68
2023/09/17 04:17:02;;;;;;;11.52;7.80;;;;;;;15.88;100.00;96583.38;5010248;28;20099;-68
2023/09/17 04:19:28;;;;;;;11.63;7.28;;;;;;;16.03;100.00;96586.84;5018225;28;20113;-68
2023/09/17 04:21:54;;;;;;;9.55;6.40;;;;;;;16.19;100.00;96592.66;5009536;28;20047;-68
2023/09/17 04:24:19;;;;;;;12.23;6.97;;;;;;;16.28;100.00;96594.16;4999065;28;20491;-68
2023/09/17 04:26:46;;;;;;;12.35;6.82;;;;;;;16.35;100.00;96610.69;5016093;28;20049;-68
2023/09/17 04:29:12;;;;;;;10.30;6.95;;;;;;;16.31;100.00;96598.88;4997028;28;20042;-68
2023/09/17 04:31:37;;;;;;;11.05;6.90;;;;;;;16.25;100.00;96606.81;5000974;28;20061;-68
2023/09/17 04:34:03;;;;;;;12.02;6.68;;;;;;;16.26;100.00;96608.41;5005890;28;20037;-65
2023/09/17 04:36:29;;;;;;;10.45;7.05;;;;;;;16.18;100.00;96607.66;5003924;28;20046;-68
2023/09/17 04:38:55;;;;;;;12.02;7.85;;;;;;;16.11;100.00;96613.22;5000869;28;20034;-69
2023/09/17 04:41:20;;;;;;;12.38;7.03;;;;;;;16.05;100.00;96612.88;4994621;28;20042;-70
2023/09/17 04:43:47;;;;;;;7.97;6.22;;;;;;;15.99;100.00;96613.69;5000283;28;20200;-67
2023/09/17 04:46:12;;;;;;;12.50;7.60;;;;;;;16.10;100.00;96625.47;4993982;28;20158;-68
2023/09/17 04:48:38;;;;;;;9.48;7.00;;;;;;;15.99;100.00;96633.03;5001998;28;20046;-68
2023/09/17 04:51:06;;;;;;;9.48;6.22;;;;;;;15.90;100.00;96625.22;4994432;28;20056;-65
2023/09/17 04:53:31;;;;;;;10.63;6.63;;;;;;;16.10;100.00;96619.16;5000165;28;20050;-67
2023/09/17 04:55:57;;;;;;;9.15;6.25;;;;;;;16.17;100.00;96617.13;5001351;28;20049;-69
2023/09/17 04:58:22;;;;;;;8.82;6.22;;;;;;;16.27;100.00;96626.53;5002295;28;20579;-68
2023/09/17 05:00:48;;;;;;;10.10;6.13;;;;;;;16.35;100.00;96627.25;5006885;28;20080;-67
2023/09/17 05:03:13;;;;;;;10.85;6.32;;;;;;;16.45;100.00;96629.16;5007213;28;20145;-65
2023/09/17 05:05:39;;;;;;;9.55;6.38;;;;;;;16.54;100.00;96628.69;5010828;28;20149;-68
2023/09/17 05:08:04;;;;;;;10.63;6.45;;;;;;;16.60;100.00;96630.63;5005265;28;20056;-65
2023/09/17 05:10:30;;;;;;;7.10;5.50;;;;;;;16.65;100.00;96640.44;5005582;28;20099;-68
2023/09/17 05:12:56;;;;;;;9.30;6.65;;;;;;;16.48;100.00;96633.09;5005643;28;20033;-68
2023/09/17 05:15:22;;;;;;;13.00;6.93;;;;;;;15.96;100.00;96640.16;5004569;28;20046;-67
2023/09/17 05:17:48;;;;;;;14.55;7.40;;;;;;;15.77;100.00;96635.94;5008736;28;20042;-68
2023/09/17 05:20:13;;;;;;;13.90;7.72;;;;;;;15.74;100.00;96638.69;5006111;28;20072;-68
2023/09/17 05:22:39;;;;;;;20.13;8.57;;;;;;;15.63;100.00;96641.50;5006052;28;21096;-69
2023/09/17 05:25:08;;;;;;;10.90;7.55;;;;;;;15.75;100.00;96651.31;5000125;28;20045;-65
2023/09/17 05:27:33;;;;;;;12.20;8.02;;;;;;;15.89;100.00;96645.72;5008050;28;20497;-68
2023/09/17 05:30:00;;;;;;;10.63;7.60;;;;;;;16.01;100.00;96642.50;5015295;28;20050;-69
2023/09/17 05:32:26;;;;;;;10.68;7.50;;;;;;;16.21;100.00;96644.75;5005575;28;20076;-69
2023/09/17 05:34:51;;;;;;;11.20;7.80;;;;;;;16.39;100.00;96647.38;5013138;28;20401;-69
2023/09/17 05:37:16;;;;;;;12.40;7.50;;;;;;;16.52;100.00;96653.22;5001867;28;20041;-68
2023/09/17 05:39:42;;;;;;;8.90;7.32;;;;;;;16.62;100.00;96652.34;5005033;28;20046;-69
2023/09/17 05:42:07;;;;;;;11.57;7.28;;;;;;;16.63;100.00;96651.91;5013771;28;20048;-69
2023/09/17 05:44:33;;;;;;;8.77;6.88;;;;;;;16.66;100.00;96652.31;5008518;28;20118;-69
2023/09/17 05:46:58;;;;;;;12.60;7.15;;;;;;;16.55;100.00;96650.41;5009383;28;20505;-69
2023/09/17 05:49:23;;;;;;;11.32;8.32;;;;;;;16.29;100.00;96645.47;5009146;28;20498;-69
2023/09/17 05:51:49;;;;;;;11.30;9.15;;;;;;;16.10;100.00;96653.09;5019050;28;20495;-70
2023/09/17 05:54:14;;;;;;;12.30;9.52;;;;;;;16.12;100.00;96655.47;5026211;28;20046;-70
2023/09/17 05:56:40;;;;;;;10.82;9.15;;;;;;;16.17;100.00;96650.28;5016567;28;20196;-70
2023/09/17 05:59:05;;;;;;;14.30;10.18;;;;;;;16.28;100.00;96649.41;5002095;28;20041;-68
2023/09/17 06:01:30;;;;;;;10.43;8.10;;;;;;;16.51;100.00;96654.38;5024247;28;20099;-69
2023/09/17 06:03:56;;;;;;;12.48;8.23;;;;;;;16.82;100.00;96664.41;5023015;28;20056;-69
2023/09/17 06:06:21;;;;;;;15.02;8.25;;;;;;;17.04;100.00;96658.69;5014053;28;20536;-67
2023/09/17 06:08:50;;;;;;;13.32;9.13;;;;;;;16.62;100.00;96663.41;5010557;28;20516;-67
2023/09/17 06:11:17;;;;;;;11.93;7.93;;;;;;;16.51;100.00;96657.16;5017155;28;20048;-67
2023/09/17 06:13:43;;;;;;;11.07;9.30;;;;;;;16.49;100.00;96657.56;5021283;28;20509;-68
2023/09/17 06:16:08;;;;;;;15.43;10.50;;;;;;;16.45;100.00;96651.28;4999164;28;20060;-68
2023/09/17 06:18:34;;;;;;;12.68;9.68;;;;;;;16.41;100.00;96653.28;5002938;28;20528;-66
2023/09/17 06:21:00;;;;;;;14.43;10.85;;;;;;;16.38;100.00;96649.34;5004308;28;20052;-68
2023/09/17 06:23:27;;;;;;;14.00;10.68;;;;;;;16.39;100.00;96645.41;4996481;28;20317;-69
2023/09/17 06:25:52;;;;;;;16.38;11.50;;;;;;;16.42;100.00;96641.84;4997743;28;20581;-68
2023/09/17 06:28:18;;;;;;;22.30;11.57;;;;;;;16.54;100.00;96645.28;4999379;28;20145;-67
2023/09/17 06:30:44;;;;;;;19.25;11.88;;;;;;;16.91;100.00;96643.81;5003744;28;20053;-69
2023/09/17 06:33:10;;;;;;;16.33;12.25;;;;;;;16.98;100.00;96641.78;4998108;28;20112;-67
2023/09/17 06:35:35;;;;;;;17.83;13.38;;;;;;;17.22;100.00;96644.69;5004054;28;20046;-69
2023/09/17 06:38:01;;;;;;;17.48;11.88;;;;;;;17.52;100.00;96638.41;5004135;28;20048;-70
2023/09/17 06:40:26;;;;;;;16.15;12.15;;;;;;;17.88;100.00;96638.00;4999291;28;20041;-70
2023/09/17 06:42:52;;;;;;;20.98;12.85;;;;;;;17.82;100.00;96645.16;5018772;28;20492;-69
2023/09/17 06:45:18;;;;;;;15.05;11.95;;;;;;;17.80;100.00;96652.31;5000808;28;20057;-69
2023/09/17 06:47:44;;;;;;;18.48;12.77;;;;;;;17.96;100.00;96658.84;5007692;28;20496;-70
2023/09/17 06:50:10;;;;;;;14.77;10.40;;;;;;;18.14;100.00;96657.81;5006971;28;20057;-69
2023/09/17 06:52:35;;;;;;;13.20;10.15;;;;;;;18.46;100.00;96659.34;5005309;28;20042;-70
2023/09/17 06:55:01;;;;;;;14.13;10.05;;;;;;;18.46;100.00;96653.78;5004269;28;20038;-70
2023/09/17 06:57:26;;;;;;;14.65;10.20;;;;;;;18.40;100.00;96653.50;4996762;28;20045;-70
2023/09/17 06:59:52;;;;;;;14.73;11.25;;;;;;;18.21;100.00;96660.50;5018652;28;20647;-69
2023/09/17 07:02:17;;;;;;;16.30;11.40;;;;;;;18.18;100.00;96660.53;5014789;28;20054;-68
2023/09/17 07:04:43;;;;;;;16.38;11.73;;;;;;;18.38;100.00;96668.97;5002815;28;20485;-68
2023/09/17 07:07:09;;;;;;;15.60;10.23;;;;;;;18.76;100.00;96666.75;5003672;28;20045;-67
2023/09/17 07:09:34;;;;;;;15.48;10.55;;;;;;;18.59;100.00;96667.84;5007781;28;20057;-69
2023/09/17 07:11:59;;;;;;;13.32;10.30;;;;;;;18.54;100.00;96664.34;5012313;28;20042;-69
2023/09/17 07:14:25;;;;;;;13.52;10.55;;;;;;;18.13;100.00;96668.13;5014099;28;20042;-68
2023/09/17 07:16:50;;;;;;;14.32;11.23;;;;;;;18.25;100.00;96665.97;5002669;28;20058;-68
2023/09/17 07:19:16;;;;;;;15.07;10.43;;;;;;;18.45;100.00;96674.41;4990903;28;20566;-69
2023/09/17 07:21:42;;;;;;;14.05;10.20;;;;;;;18.52;100.00;96666.75;5002820;28;20401;-67
2023/09/17 07:24:08;;;;;;;14.23;10.25;;;;;;;18.47;100.00;96664.44;4998336;28;20108;-70
2023/09/17 07:26:33;;;;;;;10.95;9.20;;;;;;;18.76;100.00;96666.75;5020673;28;20053;-67
2023/09/17 07:28:58;;;;;;;14.65;9.68;;;;;;;19.07;100.00;96661.91;5011473;28;20065;-69
2023/09/17 07:31:24;;;;;;;11.23;8.57;;;;;;;19.41;100.00;96660.09;5006512;28;20045;-67
2023/09/17 07:33:49;;;;;;;11.60;8.80;;;;;;;19.53;100.00;96675.34;5008799;28;20049;-67
2023/09/17 07:36:15;;;;;;;13.02;8.98;;;;;;;19.62;100.00;96683.91;4999991;28;20534;-68
2023/09/17 07:38:40;;;;;;;19.65;9.15;;;;;;;19.51;100.00;96673.00;5009586;28;20421;-69
2023/09/17 07:41:06;;;;;;;13.63;8.40;;;;;;;19.75;100.00;96678.50;5006705;28;20519;-68
2023/09/17 07:43:31;;;;;;;9.98;8.73;;;;;;;19.84;100.00;96682.31;5009786;28;20141;-68
2023/09/17 07:45:57;;;;;;;13.55;8.23;;;;;;;20.03;100.00;96677.13;5011528;28;20190;-68
2023/09/17 07:48:24;;;;;;;12.77;7.53;;;;;;;20.15;100.00;96675.69;5008960;28;20702;-68
2023/09/17 07:51:00;;;;;;;9.95;7.75;;;;;;;20.40;100.00;96694.59;5024751;28;20560;-69
2023/09/17 07:53:26;;;;;;;9.52;6.88;;;;;;;21.04;100.00;96697.09;5005479;28;20050;-67
2023/09/17 07:55:52;;;;;;;10.32;7.35;;;;;;;21.25;100.00;96684.63;5005124;28;20045;-69
2023/09/17 07:58:18;;;;;;;9.70;7.35;;;;;;;20.89;100.00;96682.75;4999883;28;20038;-68
2023/09/17 08:00:45;;;;;;;11.82;7.65;;;;;;;20.05;100.00;96685.84;5021610;28;20195;-68
2023/09/17 08:03:13;;;;;;;11.30;8.02;;;;;;;19.95;100.00;96687.63;4999507;28;20046;-68
2023/09/17 08:05:40;;;;;;;11.10;8.35;;;;;;;20.08;100.00;96684.19;5007898;28;20050;-68
2023/09/17 08:08:07;;;;;;;10.50;8.00;;;;;;;20.47;100.00;96682.53;5013871;28;20109;-67
2023/09/17 08:10:33;;;;;;;9.38;7.43;;;;;;;20.24;100.00;96687.78;5016355;28;20061;-68
2023/09/17 08:12:58;;;;;;;12.20;7.75;;;;;;;20.05;100.00;96680.28;5006241;28;20045;-68
2023/09/17 08:15:24;;;;;;;11.05;8.52;;;;;;;19.92;100.00;96677.38;5005114;28;20370;-67
2023/09/17 08:17:51;;;;;;;12.23;8.07;;;;;;;20.05;100.00;96683.06;5016591;28;20049;-68
2023/09/17 08:20:17;;;;;;;10.77;7.75;;;;;;;20.36;100.00;96680.75;4999848;28;20513;-67
2023/09/17 08:22:45;;;;;;;11.25;7.22;;;;;;;21.45;100.00;96684.50;5007797;28;20067;-69
2023/09/17 08:25:11;;;;;;;10.02;7.35;;;;;;;22.13;100.00;96686.19;5001246;28;20050;-68
2023/09/17 08:27:37;;;;;;;10.90;7.15;;;;;;;22.28;100.00;96683.00;5007818;28;20065;-67
2023/09/17 08:30:11;;;;;;;10.23;6.78;;;;;;;22.73;100.00;96686.78;5005973;28;20045;-66
2023/09/17 08:32:36;;;;;;;10.57;7.00;;;;;;;22.66;100.00;96682.22;5006111;28;20091;-69
2023/09/17 08:35:03;;;;;;;9.18;5.97;;;;;;;24.61;100.00;96683.31;5004320;28;20073;-67
2023/09/17 08:37:29;;;;;;;10.35;6.10;;;;;;;24.90;100.00;96693.38;5026086;28;20084;-69
2023/09/17 08:39:54;;;;;;;13.07;6.88;;;;;;;23.80;100.00;96690.75;5005518;28;20452;-69
2023/09/17 08:42:21;;;;;;;8.43;5.97;;;;;;;24.37;100.00;96690.66;4996653;28;20084;-69
2023/09/17 08:44:49;;;;;;;8.25;4.95;;;;;;;26.44;96.22;96699.91;5009147;28;20156;-70
2023/09/17 08:47:14;;;;;;;7.88;6.15;;;;;;;26.61;89.64;96700.34;5004778;28;20048;-71
2023/09/17 08:49:40;;;;;;;13.82;6.07;;;;;;;27.74;78.17;96710.47;5006331;28;20045;-70
2023/09/17 08:52:07;;;;;;;8.00;5.20;;;;;;;26.49;82.44;96704.88;5007526;28;20056;-69
2023/09/17 08:54:41;;;;;;;10.77;5.57;;;;;;;26.50;80.18;96711.28;5013574;28;20549;-69
2023/09/17 08:57:08;;;;;;;8.05;5.50;;;;;;;26.37;83.91;96705.88;5008089;28;20053;-69
2023/09/17 08:59:38;;;;;;;7.45;5.20;;;;;;;26.53;79.45;96701.91;5012113;28;20123;-68
2023/09/17 09:02:09;;;;;;;6.47;4.43;;;;;;;28.65;64.16;96716.50;5038321;28;20037;-66
2023/09/17 09:04:36;;;;;;;7.57;3.72;;;;;;;27.32;67.72;96712.19;5020375;28;20113;-70
2023/09/17 09:07:02;;;;;;;8.05;3.75;;;;;;;27.85;62.69;96719.13;5008256;28;20349;-69
2023/09/17 09:09:30;;;;;;;5.75;3.95;;;;;;;27.29;64.43;96707.50;5007082;28;20037;-68
2023/09/17 09:11:57;;;;;;;5.22;3.30;;;;;;;28.17;61.46;96711.81;5007267;28;20099;-69
2023/09/17 09:14:22;;;;;;;6.28;3.50;;;;;;;28.81;55.10;96723.66;5019679;28;20516;-67
2023/09/17 09:16:49;;;;;;;5.38;3.47;;;;;;;29.96;51.13;96719.03;5023355;28;20407;-69
2023/09/17 09:19:14;;;;;;;8.60;3.35;;;;;;;30.61;49.52;96710.16;5019763;28;20052;-67
2023/09/17 09:21:39;;;;;;;7.72;3.42;;;;;;;31.11;47.91;96720.31;5025002;28;20072;-69
2023/09/17 09:24:05;;;;;;;5.28;3.00;;;;;;;25.92;60.79;96701.88;5020913;28;20136;-67
2023/09/17 09:26:36;;;;;;;5.82;3.78;;;;;;;27.13;60.18;96693.84;5025236;28;20048;-70
2023/09/17 09:29:04;;;;;;;9.05;3.67;;;;;;;26.59;62.06;96685.19;5023240;28;20041;-65
2023/09/17 09:31:30;;;;;;;6.53;3.50;;;;;;;26.71;63.09;96678.63;5024224;28;20052;-70
2023/09/17 09:34:02;;;;;;;7.38;3.40;;;;;;;26.46;63.73;96677.75;5024429;28;20045;-70
2023/09/17 09:36:30;;;;;;;4.78;3.30;;;;;;;28.34;55.21;96677.53;5020572;28;20045;-70
2023/09/17 09:38:59;;;;;;;7.63;3.40;;;;;;;29.44;52.19;96680.97;5023394;28;20104;-69
2023/09/17 09:41:25;;;;;;;6.50;3.35;;;;;;;27.44;56.54;96677.41;5018530;28;20049;-69
2023/09/17 09:43:56;;;;;;;4.97;3.50;;;;;;;27.10;60.27;96675.91;5025044;28;20566;-68
2023/09/17 09:46:24;;;;;;;6.82;3.60;;;;;;;27.33;59.40;96671.53;5014395;28;20488;-69
2023/09/17 09:48:51;;;;;;;5.20;2.95;;;;;;;26.15;64.93;96661.19;5027302;28;20049;-68
2023/09/17 09:51:18;;;;;;;4.68;3.10;;;;;;;26.24;62.89;96652.72;5019462;28;20393;-69
2023/09/17 09:53:44;;;;;;;6.05;3.38;;;;;;;25.24;66.61;96640.31;5023843;28;20037;-68
2023/09/17 09:56:11;;;;;;;4.40;3.05;;;;;;;26.04;63.79;96641.25;5018961;28;20049;-68
2023/09/17 09:58:39;;;;;;;8.52;2.95;;;;;;;25.86;62.05;96648.44;5022782;28;20085;-73
2023/09/17 10:01:05;;;;;;;5.50;3.15;;;;;;;25.63;63.44;96640.66;5015855;28;20156;-66
2023/09/17 10:03:31;;;;;;;5.50;2.97;;;;;;;27.41;57.90;96646.66;5022502;28;20139;-70
2023/09/17 10:06:06;;;;;;;5.55;2.90;;;;;;;29.31;52.04;96657.97;5040397;28;20041;-69
2023/09/17 10:08:34;;;;;;;5.30;2.88;;;;;;;29.23;51.35;96654.03;5031561;28;20049;-69
2023/09/17 10:10:59;;;;;;;10.48;2.63;;;;;;;27.88;54.02;96644.22;5029891;28;20724;-69
2023/09/17 10:13:25;;;;;;;8.77;2.70;;;;;;;27.48;56.39;96629.41;5018804;28;20053;-68
2023/09/17 10:15:51;;;;;;;8.40;2.63;;;;;;;26.04;60.22;96625.19;5024000;28;20053;-67
2023/09/17 10:18:18;;;;;;;5.03;2.88;;;;;;;25.71;61.75;96625.88;5018536;28;20497;-69
2023/09/17 10:20:45;;;;;;;5.65;2.70;;;;;;;26.69;60.69;96622.91;5021564;28;20077;-69
2023/09/17 10:23:13;;;;;;;6.03;2.20;;;;;;;27.60;53.61;96641.66;5017393;28;20385;-68
2023/09/17 10:25:41;;;;;;;5.05;1.70;;;;;;;27.36;49.82;96641.72;5025690;28;20153;-70
2023/09/17 10:28:09;;;;;;;3.92;1.75;;;;;;;26.61;52.02;96627.31;5018971;28;20570;-69
2023/09/17 10:30:36;;;;;;;5.90;1.70;;;;;;;27.96;48.48;96636.97;5023038;28;20124;-69
2023/09/17 10:33:03;;;;;;;3.88;2.15;;;;;;;28.85;46.52;96636.84;5022527;28;20053;-69
2023/09/17 10:35:29;;;;;;;2.75;1.40;;;;;;;28.62;44.67;96638.56;5022637;28;20341;-67
2023/09/17 10:37:57;;;;;;;5.25;1.63;;;;;;;27.25;48.34;96633.78;5021491;28;20046;-68
2023/09/17 10:40:25;;;;;;;2.83;1.63;;;;;;;27.24;47.36;96629.41;5026633;28;20595;-69
2023/09/17 10:42:52;;;;;;;3.60;1.52;;;;;;;27.17;45.96;96636.19;5028927;28;20057;-70
2023/09/17 10:45:20;;;;;;;4.55;1.58;;;;;;;27.18;48.60;96634.94;5020707;28;20045;-70
2023/09/17 10:47:49;;;;;;;5.20;1.77;;;;;;;28.62;45.33;96637.81;5021905;28;20404;-69
2023/09/17 10:50:15;;;;;;;5.20;1.80;;;;;;;29.64;41.84;96651.97;5017300;28;20492;-68
2023/09/17 10:52:41;;;;;;;4.53;1.45;;;;;;;27.46;45.97;96638.34;5021548;28;20046;-68
2023/09/17 10:55:08;;;;;;;4.65;1.40;;;;;;;28.31;44.07;96639.84;5017366;28;20068;-69
2023/09/17 10:57:39;;;;;;;3.28;1.33;;;;;;;29.16;42.94;96636.25;5022153;28;20144;-69
2023/09/17 11:00:11;;;;;;;3.92;1.80;;;;;;;27.86;46.75;96630.63;5014272;28;20041;-69
2023/09/17 11:02:39;;;;;;;3.92;1.70;;;;;;;27.37;45.95;96627.16;5021660;28;20107;-70
2023/09/17 11:05:07;;;;;;;6.85;1.30;;;;;;;28.49;44.95;96630.41;5018132;28;20080;-65
2023/09/17 11:07:34;;;;;;;4.30;1.60;;;;;;;29.17;49.39;96617.28;5020307;28;20439;-69
2023/09/17 11:10:02;;;;;;;3.20;1.77;;;;;;;29.06;49.72;96609.44;5022647;28;20048;-68
2023/09/17 11:12:27;;;;;;;3.80;1.85;;;;;;;29.30;49.51;96612.06;5027687;28;20045;-68
2023/09/17 11:14:53;;;;;;;4.18;1.75;;;;;;;29.55;48.35;96610.56;5022302;28;20118;-68
2023/09/17 11:17:29;;;;;;;4.15;1.73;;;;;;;29.76;48.70;96604.13;5017598;28;20045;-69
2023/09/17 11:19:54;;;;;;;3.92;1.70;;;;;;;29.89;48.29;96610.94;5019989;28;20075;-69